sensor_id;sensor_type;location;lat;lon;timestamp;temperature;humidity
66328;DHT22;53133;52.862;6.602;2023-02-23T00:01:28;8.90;99.90
66328;DHT22;53133;52.862;6.602;2023-02-23T00:03:58;8.90;99.90
66328;DHT22;53133;52.862;6.602;2023-02-23T00:06:25;8.90;99.90
66328;DHT22;53133;52.862;6.602;2023-02-23T00:08:52;9.00;99.90
66328;DHT22;53133;52.862;6.602;2023-02-23T00:11:19;9.00;99.90
66328;DHT22;53133;52.862;6.602;2023-02-23T00:13:47;9.00;99.90
66328;DHT22;53133;52.862;6.602;2023-02-23T00:16:22;9.00;99.90
66328;DHT22;53133;52.862;6.602;2023-02-23T00:18:53;9.00;99.90
66328;DHT22;53133;52.862;6.602;2023-02-23T00:21:20;9.00;99.90
66328;DHT22;53133;52.862;6.602;2023-02-23T00:23:58;8.90;99.90
66328;DHT22;53133;52.862;6.602;2023-02-23T00:26:26;8.90;99.90
66328;DHT22;53133;52.862;6.602;2023-02-23T00:28:55;8.90;99.90
66328;DHT22;53133;52.862;6.602;2023-02-23T00:31:22;8.90;99.90
66328;DHT22;53133;52.862;6.602;2023-02-23T00:33:54;8.90;99.90
66328;DHT22;53133;52.862;6.602;2023-02-23T00:36:23;8.90;99.90
66328;DHT22;53133;52.862;6.602;2023-02-23T00:38:52;9.00;99.90
66328;DHT22;53133;52.862;6.602;2023-02-23T00:41:18;9.00;99.90
66328;DHT22;53133;52.862;6.602;2023-02-23T00:43:47;9.00;99.90
66328;DHT22;53133;52.862;6.602;2023-02-23T00:46:17;9.00;99.90
66328;DHT22;53133;52.862;6.602;2023-02-23T00:48:44;9.00;99.90
66328;DHT22;53133;52.862;6.602;2023-02-23T00:51:10;9.00;99.90
66328;DHT22;53133;52.862;6.602;2023-02-23T00:53:36;9.00;99.90
66328;DHT22;53133;52.862;6.602;2023-02-23T00:56:06;9.00;99.90
66328;DHT22;53133;52.862;6.602;2023-02-23T00:58:31;9.00;99.90
66328;DHT22;53133;52.862;6.602;2023-02-23T01:00:57;9.00;99.90
66328;DHT22;53133;52.862;6.602;2023-02-23T01:03:27;9.00;99.90
66328;DHT22;53133;52.862;6.602;2023-02-23T01:05:53;9.00;99.90
66328;DHT22;53133;52.862;6.602;2023-02-23T01:08:20;9.00;99.90
66328;DHT22;53133;52.862;6.602;2023-02-23T01:10:49;9.00;99.90
66328;DHT22;53133;52.862;6.602;2023-02-23T01:13:22;9.00;99.90
66328;DHT22;53133;52.862;6.602;2023-02-23T01:15:48;9.00;99.90
66328;DHT22;53133;52.862;6.602;2023-02-23T01:18:16;9.00;99.90
66328;DHT22;53133;52.862;6.602;2023-02-23T01:20:43;9.00;99.90
66328;DHT22;53133;52.862;6.602;2023-02-23T01:23:13;9.00;99.90
66328;DHT22;53133;52.862;6.602;2023-02-23T01:25:41;9.00;99.90
66328;DHT22;53133;52.862;6.602;2023-02-23T01:28:08;9.00;99.90
66328;DHT22;53133;52.862;6.602;2023-02-23T01:30:34;9.00;99.90
66328;DHT22;53133;52.862;6.602;2023-02-23T01:33:00;9.00;99.90
66328;DHT22;53133;52.862;6.602;2023-02-23T01:35:27;9.10;99.90
66328;DHT22;53133;52.862;6.602;2023-02-23T01:37:52;9.10;99.90
66328;DHT22;53133;52.862;6.602;2023-02-23T01:40:20;9.00;99.90
66328;DHT22;53133;52.862;6.602;2023-02-23T01:42:58;9.10;99.90
66328;DHT22;53133;52.862;6.602;2023-02-23T01:45:31;9.10;99.90
66328;DHT22;53133;52.862;6.602;2023-02-23T01:48:05;9.10;99.90
66328;DHT22;53133;52.862;6.602;2023-02-23T01:50:53;9.10;99.90
66328;DHT22;53133;52.862;6.602;2023-02-23T01:53:20;9.10;99.90
66328;DHT22;53133;52.862;6.602;2023-02-23T01:55:52;9.10;99.90
66328;DHT22;53133;52.862;6.602;2023-02-23T01:58:21;9.00;99.90
66328;DHT22;53133;52.862;6.602;2023-02-23T02:00:56;9.10;99.90
66328;DHT22;53133;52.862;6.602;2023-02-23T02:03:40;9.10;99.90
66328;DHT22;53133;52.862;6.602;2023-02-23T02:06:07;9.10;99.90
66328;DHT22;53133;52.862;6.602;2023-02-23T02:08:35;9.10;99.90
66328;DHT22;53133;52.862;6.602;2023-02-23T02:11:09;9.10;99.90
66328;DHT22;53133;52.862;6.602;2023-02-23T02:13:51;9.10;99.90
66328;DHT22;53133;52.862;6.602;2023-02-23T02:19:09;9.00;99.90
66328;DHT22;53133;52.862;6.602;2023-02-23T02:24:17;9.00;99.90
66328;DHT22;53133;52.862;6.602;2023-02-23T02:27:10;9.00;99.90
66328;DHT22;53133;52.862;6.602;2023-02-23T02:40:38;9.00;99.90
66328;DHT22;53133;52.862;6.602;2023-02-23T02:43:43;9.00;99.90
66328;DHT22;53133;52.862;6.602;2023-02-23T02:46:24;9.00;99.90
66328;DHT22;53133;52.862;6.602;2023-02-23T02:49:04;9.00;99.90
66328;DHT22;53133;52.862;6.602;2023-02-23T02:51:39;9.00;99.90
66328;DHT22;53133;52.862;6.602;2023-02-23T02:57:01;9.00;99.90
66328;DHT22;53133;52.862;6.602;2023-02-23T02:59:28;9.00;99.90
66328;DHT22;53133;52.862;6.602;2023-02-23T03:02:16;9.00;99.90
66328;DHT22;53133;52.862;6.602;2023-02-23T03:05:01;9.00;99.90
66328;DHT22;53133;52.862;6.602;2023-02-23T03:19:29;8.90;99.90
66328;DHT22;53133;52.862;6.602;2023-02-23T03:22:23;8.90;99.90
66328;DHT22;53133;52.862;6.602;2023-02-23T03:28:10;8.90;99.90
66328;DHT22;53133;52.862;6.602;2023-02-23T03:31:11;8.90;99.90
66328;DHT22;53133;52.862;6.602;2023-02-23T03:34:20;8.90;99.90
66328;DHT22;53133;52.862;6.602;2023-02-23T03:37:26;8.90;99.90
66328;DHT22;53133;52.862;6.602;2023-02-23T03:40:20;8.90;99.90
66328;DHT22;53133;52.862;6.602;2023-02-23T03:43:15;8.90;99.90
66328;DHT22;53133;52.862;6.602;2023-02-23T03:46:01;8.90;99.90
66328;DHT22;53133;52.862;6.602;2023-02-23T03:48:49;8.90;99.90
66328;DHT22;53133;52.862;6.602;2023-02-23T03:51:38;8.90;99.90
66328;DHT22;53133;52.862;6.602;2023-02-23T03:54:57;8.90;99.90
66328;DHT22;53133;52.862;6.602;2023-02-23T03:57:45;8.80;99.90
66328;DHT22;53133;52.862;6.602;2023-02-23T04:00:35;8.80;99.90
66328;DHT22;53133;52.862;6.602;2023-02-23T04:03:21;8.80;99.90
66328;DHT22;53133;52.862;6.602;2023-02-23T04:06:08;8.80;99.90
66328;DHT22;53133;52.862;6.602;2023-02-23T04:08:56;8.80;99.90
66328;DHT22;53133;52.862;6.602;2023-02-23T04:12:06;8.90;99.90
66328;DHT22;53133;52.862;6.602;2023-02-23T04:17:29;8.80;99.90
66328;DHT22;53133;52.862;6.602;2023-02-23T04:19:56;8.80;99.90
66328;DHT22;53133;52.862;6.602;2023-02-23T04:22:22;8.80;99.90
66328;DHT22;53133;52.862;6.602;2023-02-23T04:24:49;8.80;99.90
66328;DHT22;53133;52.862;6.602;2023-02-23T04:27:15;8.80;99.90
66328;DHT22;53133;52.862;6.602;2023-02-23T04:29:41;8.80;99.90
66328;DHT22;53133;52.862;6.602;2023-02-23T04:32:12;8.80;99.90
66328;DHT22;53133;52.862;6.602;2023-02-23T04:34:38;8.80;99.90
66328;DHT22;53133;52.862;6.602;2023-02-23T04:37:03;8.80;99.90
66328;DHT22;53133;52.862;6.602;2023-02-23T04:39:29;8.80;99.90
66328;DHT22;53133;52.862;6.602;2023-02-23T04:41:54;8.80;99.90
66328;DHT22;53133;52.862;6.602;2023-02-23T04:44:20;8.80;99.90
66328;DHT22;53133;52.862;6.602;2023-02-23T04:46:45;8.80;99.90
66328;DHT22;53133;52.862;6.602;2023-02-23T04:49:11;8.80;99.90
66328;DHT22;53133;52.862;6.602;2023-02-23T04:51:37;8.80;99.90
66328;DHT22;53133;52.862;6.602;2023-02-23T04:54:03;8.80;99.90
66328;DHT22;53133;52.862;6.602;2023-02-23T04:56:29;8.90;99.90
66328;DHT22;53133;52.862;6.602;2023-02-23T04:58:55;8.80;99.90
66328;DHT22;53133;52.862;6.602;2023-02-23T05:01:21;8.80;99.90
66328;DHT22;53133;52.862;6.602;2023-02-23T05:03:49;8.80;99.90
66328;DHT22;53133;52.862;6.602;2023-02-23T05:06:18;8.80;99.90
66328;DHT22;53133;52.862;6.602;2023-02-23T05:08:44;8.80;99.90
66328;DHT22;53133;52.862;6.602;2023-02-23T05:11:10;8.80;99.90
66328;DHT22;53133;52.862;6.602;2023-02-23T05:13:36;8.80;99.90
66328;DHT22;53133;52.862;6.602;2023-02-23T05:16:03;8.80;99.90
66328;DHT22;53133;52.862;6.602;2023-02-23T05:18:28;8.80;99.90
66328;DHT22;53133;52.862;6.602;2023-02-23T05:21:02;8.80;99.90
66328;DHT22;53133;52.862;6.602;2023-02-23T05:23:28;8.80;99.90
66328;DHT22;53133;52.862;6.602;2023-02-23T05:25:58;8.80;99.90
66328;DHT22;53133;52.862;6.602;2023-02-23T05:28:25;8.80;99.90
66328;DHT22;53133;52.862;6.602;2023-02-23T05:30:50;8.80;99.90
66328;DHT22;53133;52.862;6.602;2023-02-23T05:33:16;8.80;99.90
66328;DHT22;53133;52.862;6.602;2023-02-23T05:35:42;8.80;99.90
66328;DHT22;53133;52.862;6.602;2023-02-23T05:38:07;8.80;99.90
66328;DHT22;53133;52.862;6.602;2023-02-23T05:40:33;8.80;99.90
66328;DHT22;53133;52.862;6.602;2023-02-23T05:42:59;8.70;99.90
66328;DHT22;53133;52.862;6.602;2023-02-23T05:45:24;8.70;99.90
66328;DHT22;53133;52.862;6.602;2023-02-23T05:47:50;8.70;99.90
66328;DHT22;53133;52.862;6.602;2023-02-23T05:50:17;8.70;99.90
66328;DHT22;53133;52.862;6.602;2023-02-23T05:52:43;8.70;99.90
66328;DHT22;53133;52.862;6.602;2023-02-23T05:55:10;8.70;99.90
66328;DHT22;53133;52.862;6.602;2023-02-23T05:57:37;8.70;99.90
66328;DHT22;53133;52.862;6.602;2023-02-23T06:00:04;8.70;99.90
66328;DHT22;53133;52.862;6.602;2023-02-23T06:02:31;8.60;99.90
66328;DHT22;53133;52.862;6.602;2023-02-23T06:04:56;8.60;99.90
66328;DHT22;53133;52.862;6.602;2023-02-23T06:07:22;8.60;99.90
66328;DHT22;53133;52.862;6.602;2023-02-23T06:09:48;8.60;99.90
66328;DHT22;53133;52.862;6.602;2023-02-23T06:12:14;8.60;99.90
66328;DHT22;53133;52.862;6.602;2023-02-23T06:14:39;8.60;99.90
66328;DHT22;53133;52.862;6.602;2023-02-23T06:17:05;8.60;99.90
66328;DHT22;53133;52.862;6.602;2023-02-23T06:19:32;8.60;99.90
66328;DHT22;53133;52.862;6.602;2023-02-23T06:21:57;8.60;99.90
66328;DHT22;53133;52.862;6.602;2023-02-23T06:24:23;8.60;99.90
66328;DHT22;53133;52.862;6.602;2023-02-23T06:26:49;8.60;99.90
66328;DHT22;53133;52.862;6.602;2023-02-23T06:29:15;8.60;99.90
66328;DHT22;53133;52.862;6.602;2023-02-23T06:31:41;8.60;99.90
66328;DHT22;53133;52.862;6.602;2023-02-23T06:34:07;8.60;99.90
66328;DHT22;53133;52.862;6.602;2023-02-23T06:36:34;8.60;99.90
66328;DHT22;53133;52.862;6.602;2023-02-23T06:38:59;8.60;99.90
66328;DHT22;53133;52.862;6.602;2023-02-23T06:41:25;8.60;99.90
66328;DHT22;53133;52.862;6.602;2023-02-23T06:43:51;8.60;99.90
66328;DHT22;53133;52.862;6.602;2023-02-23T06:46:17;8.60;99.90
66328;DHT22;53133;52.862;6.602;2023-02-23T06:48:43;8.60;99.90
66328;DHT22;53133;52.862;6.602;2023-02-23T06:51:09;8.60;99.90
66328;DHT22;53133;52.862;6.602;2023-02-23T06:53:35;8.60;99.90
66328;DHT22;53133;52.862;6.602;2023-02-23T06:56:02;8.60;99.90
66328;DHT22;53133;52.862;6.602;2023-02-23T06:58:28;8.60;99.90
66328;DHT22;53133;52.862;6.602;2023-02-23T07:00:55;8.60;99.90
66328;DHT22;53133;52.862;6.602;2023-02-23T07:03:22;8.60;99.90
66328;DHT22;53133;52.862;6.602;2023-02-23T07:05:47;8.60;99.90
66328;DHT22;53133;52.862;6.602;2023-02-23T07:08:15;8.60;99.90
66328;DHT22;53133;52.862;6.602;2023-02-23T07:10:41;8.60;99.90
66328;DHT22;53133;52.862;6.602;2023-02-23T07:13:07;8.60;99.90
66328;DHT22;53133;52.862;6.602;2023-02-23T07:15:34;8.50;99.90
66328;DHT22;53133;52.862;6.602;2023-02-23T07:18:00;8.50;99.90
66328;DHT22;53133;52.862;6.602;2023-02-23T07:20:26;8.50;99.90
66328;DHT22;53133;52.862;6.602;2023-02-23T07:22:51;8.50;99.90
66328;DHT22;53133;52.862;6.602;2023-02-23T07:25:17;8.50;99.90
66328;DHT22;53133;52.862;6.602;2023-02-23T07:27:43;8.50;99.90
66328;DHT22;53133;52.862;6.602;2023-02-23T07:30:10;8.50;99.90
66328;DHT22;53133;52.862;6.602;2023-02-23T07:32:36;8.50;99.90
66328;DHT22;53133;52.862;6.602;2023-02-23T07:35:02;8.50;99.90
66328;DHT22;53133;52.862;6.602;2023-02-23T07:37:28;8.50;99.90
66328;DHT22;53133;52.862;6.602;2023-02-23T07:39:54;8.60;99.90
66328;DHT22;53133;52.862;6.602;2023-02-23T07:42:19;8.60;99.90
66328;DHT22;53133;52.862;6.602;2023-02-23T07:44:45;8.60;99.90
66328;DHT22;53133;52.862;6.602;2023-02-23T07:47:10;8.50;99.90
66328;DHT22;53133;52.862;6.602;2023-02-23T07:49:36;8.50;99.90
66328;DHT22;53133;52.862;6.602;2023-02-23T07:52:02;8.60;99.90
66328;DHT22;53133;52.862;6.602;2023-02-23T07:54:27;8.60;99.90
66328;DHT22;53133;52.862;6.602;2023-02-23T07:56:53;8.60;99.90
66328;DHT22;53133;52.862;6.602;2023-02-23T07:59:18;8.60;99.90
66328;DHT22;53133;52.862;6.602;2023-02-23T08:01:44;8.60;99.90
66328;DHT22;53133;52.862;6.602;2023-02-23T08:04:10;8.60;99.90
66328;DHT22;53133;52.862;6.602;2023-02-23T08:06:35;8.60;99.90
66328;DHT22;53133;52.862;6.602;2023-02-23T08:09:02;8.60;99.90
66328;DHT22;53133;52.862;6.602;2023-02-23T08:11:28;8.60;99.90
66328;DHT22;53133;52.862;6.602;2023-02-23T08:13:57;8.60;99.90
66328;DHT22;53133;52.862;6.602;2023-02-23T08:16:29;8.60;99.90
66328;DHT22;53133;52.862;6.602;2023-02-23T08:18:56;8.60;99.90
66328;DHT22;53133;52.862;6.602;2023-02-23T08:21:25;8.60;99.90
66328;DHT22;53133;52.862;6.602;2023-02-23T08:23:52;8.60;99.90
66328;DHT22;53133;52.862;6.602;2023-02-23T08:26:17;8.50;99.90
66328;DHT22;53133;52.862;6.602;2023-02-23T08:28:43;8.50;99.90
66328;DHT22;53133;52.862;6.602;2023-02-23T08:31:12;8.50;99.90
66328;DHT22;53133;52.862;6.602;2023-02-23T08:33:38;8.50;99.90
66328;DHT22;53133;52.862;6.602;2023-02-23T08:36:05;8.50;99.90
66328;DHT22;53133;52.862;6.602;2023-02-23T08:38:31;8.50;99.90
66328;DHT22;53133;52.862;6.602;2023-02-23T08:41:00;8.50;99.90
66328;DHT22;53133;52.862;6.602;2023-02-23T08:43:26;8.50;99.90
66328;DHT22;53133;52.862;6.602;2023-02-23T08:45:52;8.50;99.90
66328;DHT22;53133;52.862;6.602;2023-02-23T08:48:18;8.50;99.90
66328;DHT22;53133;52.862;6.602;2023-02-23T08:50:43;8.50;99.90
66328;DHT22;53133;52.862;6.602;2023-02-23T08:53:14;8.50;99.90
66328;DHT22;53133;52.862;6.602;2023-02-23T08:55:40;8.40;99.90
66328;DHT22;53133;52.862;6.602;2023-02-23T08:58:07;8.40;99.90
66328;DHT22;53133;52.862;6.602;2023-02-23T09:00:35;8.40;99.90
66328;DHT22;53133;52.862;6.602;2023-02-23T09:03:01;8.40;99.90
66328;DHT22;53133;52.862;6.602;2023-02-23T09:05:29;8.40;99.90
66328;DHT22;53133;52.862;6.602;2023-02-23T09:07:55;8.40;99.90
66328;DHT22;53133;52.862;6.602;2023-02-23T09:10:21;8.40;99.90
66328;DHT22;53133;52.862;6.602;2023-02-23T09:12:49;8.40;99.90
66328;DHT22;53133;52.862;6.602;2023-02-23T09:15:15;8.50;99.90
66328;DHT22;53133;52.862;6.602;2023-02-23T09:17:41;8.50;99.90
66328;DHT22;53133;52.862;6.602;2023-02-23T09:20:10;8.50;99.90
66328;DHT22;53133;52.862;6.602;2023-02-23T09:22:39;8.60;99.90
66328;DHT22;53133;52.862;6.602;2023-02-23T09:25:05;8.60;99.90
66328;DHT22;53133;52.862;6.602;2023-02-23T09:27:30;8.60;99.90
66328;DHT22;53133;52.862;6.602;2023-02-23T09:29:56;8.70;99.90
66328;DHT22;53133;52.862;6.602;2023-02-23T09:32:22;8.70;99.90
66328;DHT22;53133;52.862;6.602;2023-02-23T09:34:47;8.70;99.90
66328;DHT22;53133;52.862;6.602;2023-02-23T09:37:14;8.70;99.90
66328;DHT22;53133;52.862;6.602;2023-02-23T09:39:42;8.70;99.90
66328;DHT22;53133;52.862;6.602;2023-02-23T09:42:29;8.70;99.90
66328;DHT22;53133;52.862;6.602;2023-02-23T09:45:25;8.70;99.90
66328;DHT22;53133;52.862;6.602;2023-02-23T09:48:00;8.70;99.90
66328;DHT22;53133;52.862;6.602;2023-02-23T09:50:30;8.80;99.90
66328;DHT22;53133;52.862;6.602;2023-02-23T09:55:58;8.80;99.90
66328;DHT22;53133;52.862;6.602;2023-02-23T09:58:28;8.80;99.90
66328;DHT22;53133;52.862;6.602;2023-02-23T10:06:44;8.90;99.90
66328;DHT22;53133;52.862;6.602;2023-02-23T10:15:53;8.90;99.90
66328;DHT22;53133;52.862;6.602;2023-02-23T10:21:03;8.90;99.90
66328;DHT22;53133;52.862;6.602;2023-02-23T10:26:04;8.90;99.90
66328;DHT22;53133;52.862;6.602;2023-02-23T10:28:34;8.90;99.90
66328;DHT22;53133;52.862;6.602;2023-02-23T10:31:03;8.90;99.90
66328;DHT22;53133;52.862;6.602;2023-02-23T10:33:38;9.00;99.90
66328;DHT22;53133;52.862;6.602;2023-02-23T10:36:16;9.00;99.90
66328;DHT22;53133;52.862;6.602;2023-02-23T10:38:44;8.90;99.90
66328;DHT22;53133;52.862;6.602;2023-02-23T10:41:10;8.90;99.90
66328;DHT22;53133;52.862;6.602;2023-02-23T10:43:37;8.90;99.90
66328;DHT22;53133;52.862;6.602;2023-02-23T10:46:03;8.90;99.90
66328;DHT22;53133;52.862;6.602;2023-02-23T10:48:39;8.90;99.90
66328;DHT22;53133;52.862;6.602;2023-02-23T10:51:16;8.90;99.90
66328;DHT22;53133;52.862;6.602;2023-02-23T10:53:42;8.90;99.90
66328;DHT22;53133;52.862;6.602;2023-02-23T10:56:10;8.90;99.90
66328;DHT22;53133;52.862;6.602;2023-02-23T10:58:51;8.90;99.90
66328;DHT22;53133;52.862;6.602;2023-02-23T11:04:21;8.90;99.90
66328;DHT22;53133;52.862;6.602;2023-02-23T11:06:48;8.90;99.90
66328;DHT22;53133;52.862;6.602;2023-02-23T11:09:31;8.90;99.90
66328;DHT22;53133;52.862;6.602;2023-02-23T11:12:03;9.00;99.90
66328;DHT22;53133;52.862;6.602;2023-02-23T11:14:41;9.00;99.90
66328;DHT22;53133;52.862;6.602;2023-02-23T11:17:35;8.90;99.90
66328;DHT22;53133;52.862;6.602;2023-02-23T11:22:40;9.00;99.90
66328;DHT22;53133;52.862;6.602;2023-02-23T11:25:22;9.00;99.90
66328;DHT22;53133;52.862;6.602;2023-02-23T11:27:49;9.10;99.90
66328;DHT22;53133;52.862;6.602;2023-02-23T11:30:23;9.10;99.90
66328;DHT22;53133;52.862;6.602;2023-02-23T11:32:57;9.10;99.90
66328;DHT22;53133;52.862;6.602;2023-02-23T11:35:34;9.10;99.90
66328;DHT22;53133;52.862;6.602;2023-02-23T11:38:23;9.20;99.90
66328;DHT22;53133;52.862;6.602;2023-02-23T11:41:19;9.10;99.90
66328;DHT22;53133;52.862;6.602;2023-02-23T11:43:50;9.20;99.90
66328;DHT22;53133;52.862;6.602;2023-02-23T11:46:18;9.20;99.90
66328;DHT22;53133;52.862;6.602;2023-02-23T11:53:56;9.30;99.90
66328;DHT22;53133;52.862;6.602;2023-02-23T11:56:23;9.30;99.90
66328;DHT22;53133;52.862;6.602;2023-02-23T11:58:53;9.30;99.90
66328;DHT22;53133;52.862;6.602;2023-02-23T12:01:27;9.30;99.90
66328;DHT22;53133;52.862;6.602;2023-02-23T12:03:58;9.30;99.90
66328;DHT22;53133;52.862;6.602;2023-02-23T12:06:33;9.40;99.90
66328;DHT22;53133;52.862;6.602;2023-02-23T12:11:59;9.30;99.90
66328;DHT22;53133;52.862;6.602;2023-02-23T12:14:50;9.30;99.90
66328;DHT22;53133;52.862;6.602;2023-02-23T12:17:39;9.30;99.90
66328;DHT22;53133;52.862;6.602;2023-02-23T12:20:16;9.30;99.90
66328;DHT22;53133;52.862;6.602;2023-02-23T12:22:50;9.30;99.90
66328;DHT22;53133;52.862;6.602;2023-02-23T12:25:41;9.30;99.90
66328;DHT22;53133;52.862;6.602;2023-02-23T12:33:45;9.30;99.90
66328;DHT22;53133;52.862;6.602;2023-02-23T12:36:29;9.20;99.90
66328;DHT22;53133;52.862;6.602;2023-02-23T12:39:22;9.20;99.90
66328;DHT22;53133;52.862;6.602;2023-02-23T12:42:15;9.20;99.90
66328;DHT22;53133;52.862;6.602;2023-02-23T12:44:57;9.20;99.90
66328;DHT22;53133;52.862;6.602;2023-02-23T12:47:40;9.30;99.90
66328;DHT22;53133;52.862;6.602;2023-02-23T12:50:30;9.30;99.90
66328;DHT22;53133;52.862;6.602;2023-02-23T12:55:40;9.30;99.90
66328;DHT22;53133;52.862;6.602;2023-02-23T13:14:37;9.40;99.90
66328;DHT22;53133;52.862;6.602;2023-02-23T13:19:52;9.40;99.90
66328;DHT22;53133;52.862;6.602;2023-02-23T13:22:27;9.40;99.90
66328;DHT22;53133;52.862;6.602;2023-02-23T13:24:57;9.50;99.90
66328;DHT22;53133;52.862;6.602;2023-02-23T13:27:39;9.50;99.90
66328;DHT22;53133;52.862;6.602;2023-02-23T13:30:11;9.40;99.90
66328;DHT22;53133;52.862;6.602;2023-02-23T13:32:37;9.40;99.90
66328;DHT22;53133;52.862;6.602;2023-02-23T13:37:40;9.40;99.90
66328;DHT22;53133;52.862;6.602;2023-02-23T13:40:19;9.40;99.90
66328;DHT22;53133;52.862;6.602;2023-02-23T13:43:00;9.40;99.90
66328;DHT22;53133;52.862;6.602;2023-02-23T13:48:15;9.40;99.90
66328;DHT22;53133;52.862;6.602;2023-02-23T13:56:27;9.40;99.90
66328;DHT22;53133;52.862;6.602;2023-02-23T13:59:08;9.40;99.90
66328;DHT22;53133;52.862;6.602;2023-02-23T14:01:44;9.40;99.90
66328;DHT22;53133;52.862;6.602;2023-02-23T14:04:12;9.40;99.90
66328;DHT22;53133;52.862;6.602;2023-02-23T14:06:40;9.30;99.90
66328;DHT22;53133;52.862;6.602;2023-02-23T14:09:21;9.30;99.90
66328;DHT22;53133;52.862;6.602;2023-02-23T14:11:56;9.40;99.90
66328;DHT22;53133;52.862;6.602;2023-02-23T14:22:20;9.30;99.90
66328;DHT22;53133;52.862;6.602;2023-02-23T14:27:43;9.20;99.90
66328;DHT22;53133;52.862;6.602;2023-02-23T14:30:14;9.20;99.90
66328;DHT22;53133;52.862;6.602;2023-02-23T14:32:41;9.20;99.90
66328;DHT22;53133;52.862;6.602;2023-02-23T14:37:59;9.00;99.90
66328;DHT22;53133;52.862;6.602;2023-02-23T14:40:31;8.80;99.90
66328;DHT22;53133;52.862;6.602;2023-02-23T14:42:57;8.70;99.90
66328;DHT22;53133;52.862;6.602;2023-02-23T14:45:28;8.60;99.90
66328;DHT22;53133;52.862;6.602;2023-02-23T14:47:57;8.50;99.90
66328;DHT22;53133;52.862;6.602;2023-02-23T14:50:29;8.40;99.90
66328;DHT22;53133;52.862;6.602;2023-02-23T14:52:56;8.30;99.90
66328;DHT22;53133;52.862;6.602;2023-02-23T14:55:23;8.30;99.90
66328;DHT22;53133;52.862;6.602;2023-02-23T14:57:50;8.20;99.90
66328;DHT22;53133;52.862;6.602;2023-02-23T15:00:26;8.10;99.90
66328;DHT22;53133;52.862;6.602;2023-02-23T15:03:05;8.20;99.90
66328;DHT22;53133;52.862;6.602;2023-02-23T15:05:45;8.10;99.90
66328;DHT22;53133;52.862;6.602;2023-02-23T15:08:15;8.00;99.90
66328;DHT22;53133;52.862;6.602;2023-02-23T15:10:43;8.00;99.90
66328;DHT22;53133;52.862;6.602;2023-02-23T15:15:57;7.90;99.90
66328;DHT22;53133;52.862;6.602;2023-02-23T15:18:32;7.80;99.90
66328;DHT22;53133;52.862;6.602;2023-02-23T15:21:00;7.80;99.90
66328;DHT22;53133;52.862;6.602;2023-02-23T15:23:33;7.80;99.90
66328;DHT22;53133;52.862;6.602;2023-02-23T15:26:18;7.70;99.90
66328;DHT22;53133;52.862;6.602;2023-02-23T15:28:44;7.80;99.90
66328;DHT22;53133;52.862;6.602;2023-02-23T15:31:11;7.80;99.90
66328;DHT22;53133;52.862;6.602;2023-02-23T15:33:37;7.70;99.90
66328;DHT22;53133;52.862;6.602;2023-02-23T15:36:15;7.70;99.90
66328;DHT22;53133;52.862;6.602;2023-02-23T15:38:47;7.70;99.90
66328;DHT22;53133;52.862;6.602;2023-02-23T15:41:28;7.70;99.90
66328;DHT22;53133;52.862;6.602;2023-02-23T15:44:10;7.70;99.90
66328;DHT22;53133;52.862;6.602;2023-02-23T15:46:37;7.70;99.90
66328;DHT22;53133;52.862;6.602;2023-02-23T15:49:11;7.60;99.90
66328;DHT22;53133;52.862;6.602;2023-02-23T15:51:42;7.60;99.90
66328;DHT22;53133;52.862;6.602;2023-02-23T15:54:20;7.60;99.90
66328;DHT22;53133;52.862;6.602;2023-02-23T15:56:48;7.60;99.90
66328;DHT22;53133;52.862;6.602;2023-02-23T15:59:26;7.60;99.90
66328;DHT22;53133;52.862;6.602;2023-02-23T16:01:53;7.70;99.90
66328;DHT22;53133;52.862;6.602;2023-02-23T16:04:19;7.60;99.90
66328;DHT22;53133;52.862;6.602;2023-02-23T16:12:12;7.50;99.90
66328;DHT22;53133;52.862;6.602;2023-02-23T16:15:17;7.50;99.90
66328;DHT22;53133;52.862;6.602;2023-02-23T16:17:47;7.40;99.90
66328;DHT22;53133;52.862;6.602;2023-02-23T16:20:37;7.40;99.90
66328;DHT22;53133;52.862;6.602;2023-02-23T16:23:11;7.40;99.90
66328;DHT22;53133;52.862;6.602;2023-02-23T16:25:41;7.40;99.90
66328;DHT22;53133;52.862;6.602;2023-02-23T16:28:11;7.40;99.90
66328;DHT22;53133;52.862;6.602;2023-02-23T16:30:49;7.40;99.90
66328;DHT22;53133;52.862;6.602;2023-02-23T16:33:23;7.50;99.90
66328;DHT22;53133;52.862;6.602;2023-02-23T16:35:53;7.50;99.90
66328;DHT22;53133;52.862;6.602;2023-02-23T16:38:38;7.40;99.90
66328;DHT22;53133;52.862;6.602;2023-02-23T16:41:05;7.40;99.90
66328;DHT22;53133;52.862;6.602;2023-02-23T16:43:34;7.40;99.90
66328;DHT22;53133;52.862;6.602;2023-02-23T16:46:00;7.40;99.90
66328;DHT22;53133;52.862;6.602;2023-02-23T16:48:26;7.40;99.90
66328;DHT22;53133;52.862;6.602;2023-02-23T16:50:52;7.40;99.90
66328;DHT22;53133;52.862;6.602;2023-02-23T16:53:18;7.40;99.90
66328;DHT22;53133;52.862;6.602;2023-02-23T16:55:51;7.40;99.90
66328;DHT22;53133;52.862;6.602;2023-02-23T16:58:20;7.40;99.90
66328;DHT22;53133;52.862;6.602;2023-02-23T17:00:46;7.40;99.90
66328;DHT22;53133;52.862;6.602;2023-02-23T17:03:33;7.40;99.90
66328;DHT22;53133;52.862;6.602;2023-02-23T17:05:58;7.40;99.90
66328;DHT22;53133;52.862;6.602;2023-02-23T17:08:26;7.50;99.90
66328;DHT22;53133;52.862;6.602;2023-02-23T17:10:52;7.40;99.90
66328;DHT22;53133;52.862;6.602;2023-02-23T17:13:22;7.50;99.90
66328;DHT22;53133;52.862;6.602;2023-02-23T17:15:50;7.50;99.90
66328;DHT22;53133;52.862;6.602;2023-02-23T17:18:22;7.50;99.90
66328;DHT22;53133;52.862;6.602;2023-02-23T17:20:51;7.40;99.90
66328;DHT22;53133;52.862;6.602;2023-02-23T17:23:18;7.40;99.90
66328;DHT22;53133;52.862;6.602;2023-02-23T17:25:45;7.40;99.90
66328;DHT22;53133;52.862;6.602;2023-02-23T17:28:10;7.30;99.90
66328;DHT22;53133;52.862;6.602;2023-02-23T17:30:36;7.30;99.90
66328;DHT22;53133;52.862;6.602;2023-02-23T17:33:04;7.30;99.90
66328;DHT22;53133;52.862;6.602;2023-02-23T17:35:30;7.30;99.90
66328;DHT22;53133;52.862;6.602;2023-02-23T17:38:01;7.30;99.90
66328;DHT22;53133;52.862;6.602;2023-02-23T17:40:27;7.30;99.90
66328;DHT22;53133;52.862;6.602;2023-02-23T17:42:57;7.30;99.90
66328;DHT22;53133;52.862;6.602;2023-02-23T17:45:23;7.30;99.90
66328;DHT22;53133;52.862;6.602;2023-02-23T17:47:49;7.20;99.90
66328;DHT22;53133;52.862;6.602;2023-02-23T17:50:15;7.20;99.90
66328;DHT22;53133;52.862;6.602;2023-02-23T17:52:41;7.20;99.90
66328;DHT22;53133;52.862;6.602;2023-02-23T17:55:07;7.10;99.90
66328;DHT22;53133;52.862;6.602;2023-02-23T17:57:34;7.20;99.90
66328;DHT22;53133;52.862;6.602;2023-02-23T18:00:00;7.20;99.90
66328;DHT22;53133;52.862;6.602;2023-02-23T18:02:25;7.20;99.90
66328;DHT22;53133;52.862;6.602;2023-02-23T18:04:52;7.20;99.90
66328;DHT22;53133;52.862;6.602;2023-02-23T18:07:19;7.20;99.90
66328;DHT22;53133;52.862;6.602;2023-02-23T18:09:45;7.10;99.90
66328;DHT22;53133;52.862;6.602;2023-02-23T18:12:15;7.20;99.90
66328;DHT22;53133;52.862;6.602;2023-02-23T18:14:40;7.20;99.90
66328;DHT22;53133;52.862;6.602;2023-02-23T18:17:07;7.20;99.90
66328;DHT22;53133;52.862;6.602;2023-02-23T18:19:32;7.20;99.90
66328;DHT22;53133;52.862;6.602;2023-02-23T18:21:59;7.20;99.90